Time;durP1;ratioP1;P1;durP2;ratioP2;P2;SDS_P1;SDS_P2;PMS_P1;PMS_P2;Temp;Humidity;BMP_temperature;BMP_pressure;BME280_temperature;BME280_humidity;BME280_pressure;Samples;Min_cycle;Max_cycle;Signal;HPM_P1;HPM_P2
2023/06/03 00:01:19;;;;;;;5.18;2.58;;;26.50;50.10;;;;;;5054953;28;20140;-71
2023/06/03 00:03:46;;;;;;;3.33;1.90;;;26.40;50.30;;;;;;5054803;28;20124;-70
2023/06/03 00:06:13;;;;;;;5.10;2.47;;;26.40;50.30;;;;;;5054623;28;20095;-71
2023/06/03 00:08:44;;;;;;;6.60;2.28;;;26.50;50.30;;;;;;5054606;28;20029;-70
2023/06/03 00:11:11;;;;;;;3.27;2.27;;;26.60;50.30;;;;;;5053441;28;20359;-71
2023/06/03 00:13:40;;;;;;;3.78;1.98;;;26.50;50.50;;;;;;5053387;28;20056;-71
2023/06/03 00:16:06;;;;;;;4.78;2.00;;;26.40;49.90;;;;;;5068862;28;20415;-71
2023/06/03 00:18:33;;;;;;;4.82;2.15;;;26.30;50.40;;;;;;5054648;28;20784;-71
2023/06/03 00:21:01;;;;;;;3.28;2.10;;;26.50;50.90;;;;;;5054177;28;20079;-70
2023/06/03 00:23:27;;;;;;;3.92;2.30;;;26.30;51.10;;;;;;5054295;28;20120;-70
2023/06/03 00:25:54;;;;;;;6.20;2.22;;;26.40;51.20;;;;;;5054331;28;20063;-71
2023/06/03 00:28:20;;;;;;;3.33;2.38;;;26.30;50.30;;;;;;5054095;28;20111;-70
2023/06/03 00:30:46;;;;;;;3.58;2.40;;;26.40;51.30;;;;;;5054447;28;20073;-70
2023/06/03 00:33:14;;;;;;;7.13;2.42;;;26.50;51.40;;;;;;5052902;28;20211;-71
2023/06/03 00:35:40;;;;;;;3.83;2.28;;;26.30;51.40;;;;;;5051365;28;20407;-71
2023/06/03 00:38:06;;;;;;;5.32;2.25;;;26.40;51.00;;;;;;5035059;28;20045;-71
2023/06/03 00:40:32;;;;;;;4.90;2.00;;;26.40;51.00;;;;;;5051401;28;20072;-71
2023/06/03 00:42:58;;;;;;;6.13;2.17;;;26.30;51.10;;;;;;5051626;28;20408;-70
2023/06/03 00:45:24;;;;;;;4.07;2.35;;;26.50;51.20;;;;;;5051381;28;20041;-70
2023/06/03 00:47:52;;;;;;;4.35;2.63;;;26.50;51.50;;;;;;5051539;28;20037;-70
2023/06/03 00:50:18;;;;;;;4.28;2.25;;;26.40;50.90;;;;;;5051554;28;20049;-71
2023/06/03 00:52:45;;;;;;;5.82;2.25;;;26.40;51.00;;;;;;5051374;28;20551;-71
2023/06/03 00:55:11;;;;;;;5.57;2.85;;;26.20;51.40;;;;;;5051155;28;20128;-70
2023/06/03 00:57:38;;;;;;;4.05;2.38;;;26.30;49.70;;;;;;5034803;28;20044;-70
2023/06/03 01:00:05;;;;;;;4.80;2.90;;;26.30;51.40;;;;;;5050783;28;20109;-71
2023/06/03 01:02:31;;;;;;;3.72;2.20;;;26.30;51.30;;;;;;5051268;28;20060;-71
2023/06/03 01:04:58;;;;;;;3.08;1.95;;;26.30;51.50;;;;;;5050053;28;20503;-71
2023/06/03 01:07:53;;;;;;;2.72;2.40;;;26.30;50.40;;;;;;5048217;28;20040;-71
2023/06/03 01:10:39;;;;;;;4.82;2.47;;;26.20;51.50;;;;;;5053908;28;20032;-70
2023/06/03 01:13:22;;;;;;;4.03;2.28;;;26.20;50.80;;;;;;5053637;28;20143;-70
2023/06/03 01:15:55;;;;;;;3.53;2.05;;;26.20;51.80;;;;;;5053454;28;20167;-70
2023/06/03 01:18:22;;;;;;;6.35;2.55;;;26.20;52.20;;;;;;5052392;28;20041;-70
2023/06/03 01:20:49;;;;;;;2.85;2.30;;;26.10;51.90;;;;;;5053415;28;20053;-70
2023/06/03 01:23:23;;;;;;;5.05;2.60;;;26.20;51.20;;;;;;5053269;28;20439;-70
2023/06/03 01:25:52;;;;;;;6.18;2.50;;;26.20;52.00;;;;;;5053038;28;20122;-72
2023/06/03 01:28:20;;;;;;;4.22;2.10;;;26.20;51.40;;;;;;5053215;28;20061;-70
2023/06/03 01:30:47;;;;;;;3.05;2.35;;;26.30;51.90;;;;;;5053241;28;20507;-71
2023/06/03 01:33:14;;;;;;;3.17;2.25;;;26.30;51.90;;;;;;5053226;28;20033;-71
2023/06/03 01:35:42;;;;;;;5.35;2.80;;;26.20;51.10;;;;;;5052862;28;20036;-70
2023/06/03 01:38:08;;;;;;;3.53;2.40;;;26.30;52.30;;;;;;5052968;28;20041;-70
2023/06/03 01:40:35;;;;;;;4.43;2.40;;;26.20;51.70;;;;;;5051854;28;20048;-70
2023/06/03 01:43:03;;;;;;;4.35;2.22;;;26.20;52.40;;;;;;5051737;28;20095;-70
2023/06/03 01:45:29;;;;;;;4.22;2.40;;;26.30;51.80;;;;;;5051562;28;20073;-71
2023/06/03 01:47:55;;;;;;;6.35;2.95;;;26.30;52.40;;;;;;5051804;28;20037;-71
2023/06/03 01:50:24;;;;;;;4.03;2.30;;;26.20;51.10;;;;;;5051579;28;20033;-71
2023/06/03 01:52:51;;;;;;;3.85;2.47;;;26.20;52.10;;;;;;5051219;28;20047;-71
2023/06/03 01:55:18;;;;;;;7.07;2.63;;;26.30;51.30;;;;;;5051447;28;20032;-72
2023/06/03 01:57:47;;;;;;;4.20;2.42;;;26.10;51.40;;;;;;5051432;28;20064;-71
2023/06/03 02:00:15;;;;;;;5.60;2.42;;;26.20;52.30;;;;;;5051356;28;20396;-71
2023/06/03 02:02:41;;;;;;;5.72;3.00;;;26.20;51.90;;;;;;5052563;28;20036;-71
2023/06/03 02:05:07;;;;;;;6.55;2.97;;;26.10;52.00;;;;;;5052492;28;20048;-71
2023/06/03 02:07:34;;;;;;;5.82;2.13;;;26.20;52.10;;;;;;5052276;28;20025;-73
2023/06/03 02:10:02;;;;;;;6.25;2.50;;;26.20;52.40;;;;;;5034858;28;20044;-71
2023/06/03 02:12:28;;;;;;;3.83;1.92;;;26.20;52.10;;;;;;5034408;28;20397;-71
2023/06/03 02:14:55;;;;;;;4.00;2.30;;;26.10;52.50;;;;;;5052379;28;20396;-71
2023/06/03 02:17:22;;;;;;;7.55;3.08;;;26.10;52.70;;;;;;5034242;28;20040;-71
2023/06/03 02:19:48;;;;;;;7.35;2.47;;;26.10;51.50;;;;;;5052247;28;20049;-70
2023/06/03 02:22:15;;;;;;;4.00;2.75;;;26.10;52.40;;;;;;5033998;28;20163;-70
2023/06/03 02:24:41;;;;;;;4.65;2.58;;;26.10;52.50;;;;;;5034337;28;20037;-70
2023/06/03 02:27:08;;;;;;;5.95;2.63;;;26.10;52.40;;;;;;5034296;28;20067;-70
2023/06/03 02:29:35;;;;;;;4.88;2.47;;;26.10;51.70;;;;;;5050673;28;20036;-70
2023/06/03 02:32:02;;;;;;;2.97;2.35;;;26.10;53.00;;;;;;5051877;28;20041;-71
2023/06/03 02:34:28;;;;;;;6.60;2.85;;;26.20;52.90;;;;;;5051537;28;20033;-71
2023/06/03 02:36:54;;;;;;;3.70;2.38;;;26.20;52.90;;;;;;5052029;28;20037;-71
2023/06/03 02:39:21;;;;;;;5.38;2.78;;;26.30;52.80;;;;;;5050779;28;20029;-70
2023/06/03 02:41:48;;;;;;;3.38;2.50;;;26.10;52.90;;;;;;5050424;28;20094;-71
2023/06/03 02:44:18;;;;;;;7.30;2.60;;;26.10;51.40;;;;;;5050184;28;20047;-70
2023/06/03 02:46:45;;;;;;;2.85;2.22;;;26.20;51.50;;;;;;5050607;28;20139;-71
2023/06/03 02:49:13;;;;;;;8.35;3.00;;;26.10;53.00;;;;;;5050329;28;20029;-71
2023/06/03 02:51:40;;;;;;;5.82;2.65;;;26.00;53.10;;;;;;5050479;28;20029;-71
2023/06/03 02:54:07;;;;;;;4.22;2.75;;;26.10;52.60;;;;;;5051677;28;20113;-70
2023/06/03 02:56:33;;;;;;;3.55;2.40;;;26.10;52.80;;;;;;5051388;28;20033;-70
2023/06/03 02:58:59;;;;;;;8.20;2.85;;;26.10;53.20;;;;;;5051484;28;20033;-71
2023/06/03 03:01:27;;;;;;;6.50;2.83;;;26.10;52.90;;;;;;5051384;28;20072;-70
2023/06/03 03:03:53;;;;;;;5.63;2.30;;;26.00;52.50;;;;;;5050287;28;20111;-70
2023/06/03 03:06:22;;;;;;;4.25;2.95;;;26.20;53.30;;;;;;5051448;28;20496;-70
2023/06/03 03:08:48;;;;;;;6.68;2.25;;;25.90;52.70;;;;;;5051092;28;20028;-70
2023/06/03 03:11:16;;;;;;;6.25;2.50;;;26.00;53.20;;;;;;5050129;28;20063;-70
2023/06/03 03:13:45;;;;;;;4.10;3.00;;;26.00;52.60;;;;;;5028727;28;20069;-71
2023/06/03 03:16:13;;;;;;;6.60;2.50;;;26.00;53.30;;;;;;5028846;28;20482;-71
2023/06/03 03:18:41;;;;;;;7.60;2.60;;;25.80;52.90;;;;;;5028677;28;20142;-70
2023/06/03 03:21:09;;;;;;;3.30;2.90;;;26.00;53.00;;;;;;5012176;28;20505;-71
2023/06/03 03:23:35;;;;;;;4.40;2.85;;;26.00;53.10;;;;;;4995947;28;20045;-71
2023/06/03 03:26:06;;;;;;;5.90;2.67;;;26.00;53.20;;;;;;5012047;28;20061;-70
2023/06/03 03:28:33;;;;;;;4.53;2.88;;;26.10;52.90;;;;;;5011646;28;20049;-71
2023/06/03 03:31:04;;;;;;;4.63;2.10;;;26.00;53.10;;;;;;5012352;28;20048;-71
2023/06/03 03:33:31;;;;;;;4.35;2.78;;;26.10;53.00;;;;;;5012198;28;20045;-70
2023/06/03 03:36:08;;;;;;;6.95;2.80;;;26.20;52.70;;;;;;5012050;28;20410;-71
2023/06/03 03:38:37;;;;;;;4.70;2.15;;;26.10;52.10;;;;;;5012132;28;20038;-71
2023/06/03 03:41:05;;;;;;;3.38;2.40;;;26.10;52.60;;;;;;5012314;28;20088;-71
2023/06/03 03:43:33;;;;;;;1.88;1.67;;;26.20;52.80;;;;;;5012105;28;20389;-71
2023/06/03 03:46:00;;;;;;;4.35;2.13;;;26.10;53.10;;;;;;5048224;28;20107;-70
2023/06/03 03:48:28;;;;;;;4.22;2.17;;;26.20;52.40;;;;;;5031910;28;20052;-71
2023/06/03 03:50:57;;;;;;;3.40;2.13;;;26.10;52.60;;;;;;5012076;28;20049;-70
2023/06/03 03:53:33;;;;;;;4.63;2.35;;;26.10;53.00;;;;;;5029363;28;20112;-70
2023/06/03 03:56:01;;;;;;;3.88;2.58;;;26.10;53.00;;;;;;5008616;28;20092;-70
2023/06/03 03:58:41;;;;;;;4.82;2.50;;;26.10;51.40;;;;;;5025365;28;20070;-69
2023/06/03 04:01:15;;;;;;;4.93;1.95;;;26.10;50.30;;;;;;5008943;28;20091;-74
2023/06/03 04:03:47;;;;;;;2.42;2.22;;;26.00;53.10;;;;;;5008668;28;20038;-74
2023/06/03 04:06:36;;;;;;;4.30;2.88;;;26.00;49.90;;;;;;5024992;28;20571;-73
2023/06/03 04:09:04;;;;;;;5.40;1.92;;;26.00;49.50;;;;;;5025334;28;20092;-73
2023/06/03 04:11:36;;;;;;;5.07;2.30;;;25.90;47.10;;;;;;5008724;28;20050;-73
2023/06/03 04:14:05;;;;;;;6.70;2.40;;;25.90;46.10;;;;;;5025140;28;20054;-73
2023/06/03 04:16:53;;;;;;;3.50;1.73;;;26.00;46.10;;;;;;5001975;28;20056;-73
2023/06/03 04:19:32;;;;;;;7.95;2.38;;;26.00;45.80;;;;;;5031427;28;20091;-73
2023/06/03 04:22:00;;;;;;;3.58;2.33;;;25.90;44.80;;;;;;5031732;28;20042;-74
2023/06/03 04:24:27;;;;;;;3.58;2.28;;;25.90;44.60;;;;;;5031720;28;20033;-72
2023/06/03 04:26:54;;;;;;;5.65;2.20;;;26.20;47.20;;;;;;5031260;28;20111;-75
2023/06/03 04:29:21;;;;;;;5.85;3.15;;;26.60;49.00;;;;;;5048371;28;20033;-74
2023/06/03 04:31:48;;;;;;;3.10;2.60;;;26.80;49.50;;;;;;5028122;28;20088;-75
2023/06/03 04:34:14;;;;;;;5.20;2.33;;;26.70;46.80;;;;;;5044453;28;20045;-73
2023/06/03 04:36:40;;;;;;;7.78;2.25;;;26.60;46.00;;;;;;5031278;28;20087;-73
2023/06/03 04:39:08;;;;;;;3.83;1.88;;;26.50;45.00;;;;;;5032021;28;20068;-73
2023/06/03 04:41:38;;;;;;;3.38;1.98;;;26.40;43.60;;;;;;5034990;28;20495;-73
2023/06/03 04:44:05;;;;;;;2.25;1.70;;;26.40;43.20;;;;;;5034504;28;20055;-73
2023/06/03 04:46:31;;;;;;;4.05;1.77;;;26.30;43.70;;;;;;5034991;28;20112;-74
2023/06/03 04:49:01;;;;;;;2.13;1.75;;;26.30;44.00;;;;;;5034921;28;20033;-73
2023/06/03 04:51:33;;;;;;;4.05;2.00;;;26.30;44.10;;;;;;5051559;28;20041;-74
2023/06/03 04:54:01;;;;;;;;;;;26.20;44.30;;;;;;5035233;28;20028;-73
2023/06/03 04:56:30;;;;;;;2.50;1.98;;;26.20;44.30;;;;;;5034657;28;19916;-73
2023/06/03 04:59:06;;;;;;;4.17;2.00;;;26.10;45.00;;;;;;5034841;28;20033;-73
2023/06/03 05:01:40;;;;;;;6.28;1.83;;;26.10;45.50;;;;;;5050286;28;20341;-73
2023/06/03 05:04:11;;;;;;;5.50;2.10;;;26.20;45.10;;;;;;5051979;28;20041;-72
2023/06/03 05:06:38;;;;;;;7.50;2.13;;;26.10;45.30;;;;;;5052437;28;20075;-72
2023/06/03 05:09:05;;;;;;;6.88;1.98;;;26.00;45.30;;;;;;5052464;28;20094;-74
2023/06/03 05:11:32;;;;;;;7.07;1.90;;;26.10;43.50;;;;;;5052329;28;20036;-72
2023/06/03 05:13:58;;;;;;;2.58;1.50;;;26.00;42.50;;;;;;5052425;28;20033;-73
2023/06/03 05:16:25;;;;;;;3.92;1.90;;;25.80;41.50;;;;;;5050734;28;20053;-73
2023/06/03 05:18:51;;;;;;;4.50;2.05;;;25.80;41.40;;;;;;5050441;28;20094;-73
2023/06/03 05:21:19;;;;;;;3.53;1.88;;;25.70;42.10;;;;;;5067573;28;20060;-74
2023/06/03 05:23:46;;;;;;;5.00;1.75;;;25.70;43.00;;;;;;5067582;28;20044;-72
2023/06/03 05:26:12;;;;;;;6.88;2.25;;;25.70;43.30;;;;;;5034197;28;20037;-73
2023/06/03 05:28:38;;;;;;;3.25;1.50;;;25.80;44.00;;;;;;5067375;28;20040;-75
2023/06/03 05:31:05;;;;;;;4.57;1.70;;;25.70;44.30;;;;;;5050740;28;20500;-72
2023/06/03 05:33:35;;;;;;;1.55;1.45;;;25.70;44.40;;;;;;5067409;28;20041;-73
2023/06/03 05:36:12;;;;;;;2.13;1.58;;;25.70;45.10;;;;;;5050485;28;20504;-73
2023/06/03 05:38:38;;;;;;;5.43;1.42;;;25.80;45.40;;;;;;5067206;28;20484;-72
2023/06/03 05:41:07;;;;;;;8.40;2.13;;;25.90;45.40;;;;;;5050748;28;20041;-71
2023/06/03 05:43:34;;;;;;;5.05;2.03;;;25.80;45.50;;;;;;5067167;28;20076;-72
2023/06/03 05:46:00;;;;;;;5.57;1.92;;;25.70;45.50;;;;;;5033918;28;20033;-72
2023/06/03 05:48:27;;;;;;;2.95;2.00;;;25.80;45.60;;;;;;5068913;28;20460;-73
2023/06/03 05:50:54;;;;;;;3.70;1.48;;;25.90;45.60;;;;;;5034568;28;20041;-72
2023/06/03 05:53:26;;;;;;;2.75;1.58;;;25.80;45.90;;;;;;5017061;28;20571;-73
2023/06/03 05:55:54;;;;;;;3.88;1.80;;;25.80;45.90;;;;;;5033588;28;20084;-72
2023/06/03 05:58:22;;;;;;;9.43;2.22;;;25.90;46.00;;;;;;5033404;28;20578;-69
2023/06/03 06:00:48;;;;;;;3.80;1.73;;;25.90;44.50;;;;;;5033191;28;20044;-69
2023/06/03 06:03:15;;;;;;;3.40;1.85;;;25.90;43.80;;;;;;5033477;28;20068;-71
2023/06/03 06:05:42;;;;;;;1.10;1.00;;;25.90;42.50;;;;;;5033529;28;20091;-70
2023/06/03 06:08:08;;;;;;;5.25;1.60;;;25.90;42.80;;;;;;5029686;28;20076;-72
2023/06/03 06:10:35;;;;;;;6.47;1.73;;;25.80;42.90;;;;;;5013623;28;20049;-70
2023/06/03 06:13:01;;;;;;;2.42;1.77;;;25.80;42.40;;;;;;5010118;28;20125;-73
2023/06/03 06:15:32;;;;;;;2.28;1.67;;;25.90;42.20;;;;;;5010112;28;20050;-71
2023/06/03 06:17:59;;;;;;;4.90;1.55;;;25.90;42.00;;;;;;4993553;28;20042;-72
2023/06/03 06:20:26;;;;;;;10.95;1.67;;;25.80;41.70;;;;;;4993416;28;20080;-71
2023/06/03 06:22:52;;;;;;;1.10;1.00;;;26.00;43.90;;;;;;5027906;28;20045;-72
2023/06/03 06:25:19;;;;;;;0.32;0.32;;;26.10;48.70;;;;;;5029556;28;20033;-70
2023/06/03 06:27:46;;;;;;;3.53;1.52;;;26.30;44.20;;;;;;4990042;28;20046;-70
2023/06/03 06:30:14;;;;;;;1.75;1.40;;;26.20;44.80;;;;;;4990468;28;20540;-73
2023/06/03 06:32:51;;;;;;;4.45;1.80;;;26.20;41.60;;;;;;4990157;28;20061;-72
2023/06/03 06:35:28;;;;;;;4.18;1.77;;;26.20;42.00;;;;;;4989117;28;20042;-71
2023/06/03 06:37:56;;;;;;;1.55;1.45;;;26.20;41.20;;;;;;4989576;28;20154;-71
2023/06/03 06:40:32;;;;;;;5.82;1.60;;;26.20;41.90;;;;;;4977538;28;20367;-72
2023/06/03 06:42:59;;;;;;;4.07;1.30;;;26.30;41.80;;;;;;5008165;28;20049;-73
2023/06/03 06:45:38;;;;;;;2.33;1.27;;;26.30;41.20;;;;;;4987164;28;20102;-72
2023/06/03 06:48:08;;;;;;;4.03;1.73;;;26.10;41.50;;;;;;5001924;28;20119;-71
2023/06/03 06:50:43;;;;;;;9.73;1.65;;;26.20;41.40;;;;;;4973978;28;20049;-72
2023/06/03 06:53:09;;;;;;;1.35;1.25;;;26.20;41.30;;;;;;4973813;28;20042;-71
2023/06/03 06:55:41;;;;;;;1.83;1.58;;;26.20;41.30;;;;;;4973818;28;20039;-71
2023/06/03 06:58:10;;;;;;;2.17;1.45;;;26.40;41.20;;;;;;4999587;28;20037;-71
2023/06/03 07:00:38;;;;;;;2.75;1.08;;;26.40;40.80;;;;;;5028268;28;20073;-70
2023/06/03 07:03:12;;;;;;;4.90;1.60;;;26.30;41.00;;;;;;5046190;28;20063;-71
2023/06/03 07:05:38;;;;;;;1.60;0.52;;;26.40;40.70;;;;;;5034350;28;20040;-71
2023/06/03 07:08:04;;;;;;;3.15;1.20;;;26.30;40.80;;;;;;5049047;28;20064;-71
2023/06/03 07:10:31;;;;;;;2.55;1.63;;;26.40;40.50;;;;;;5049036;28;20049;-72
2023/06/03 07:12:57;;;;;;;4.45;1.00;;;26.40;39.90;;;;;;5032188;28;20082;-72
2023/06/03 07:15:24;;;;;;;1.92;1.75;;;26.40;39.70;;;;;;5049019;28;20048;-71
2023/06/03 07:17:54;;;;;;;2.03;1.40;;;26.40;39.50;;;;;;5045132;28;20074;-71
2023/06/03 07:20:28;;;;;;;2.58;2.38;;;26.40;40.40;;;;;;5053522;28;20048;-71
2023/06/03 07:22:55;;;;;;;8.02;1.27;;;26.40;39.90;;;;;;5071403;28;20055;-71
2023/06/03 07:25:42;;;;;;;5.97;0.90;;;26.50;40.10;;;;;;5053508;28;20040;-71
2023/06/03 07:28:28;;;;;;;5.47;1.33;;;26.50;40.20;;;;;;5071332;28;20036;-70
2023/06/03 07:30:58;;;;;;;1.17;1.10;;;26.50;40.20;;;;;;5070009;28;20043;-73
2023/06/03 07:33:27;;;;;;;7.28;1.58;;;26.50;39.80;;;;;;5070582;28;20040;-73
2023/06/03 07:35:57;;;;;;;2.45;1.10;;;26.30;40.30;;;;;;5049761;28;20032;-72
2023/06/03 07:38:37;;;;;;;1.42;1.05;;;26.40;39.40;;;;;;5049741;28;20444;-73
2023/06/03 07:41:07;;;;;;;2.83;1.27;;;26.40;40.10;;;;;;5049772;28;20064;-71
2023/06/03 07:43:38;;;;;;;1.30;1.20;;;26.50;39.60;;;;;;5049826;28;20036;-72
2023/06/03 07:46:05;;;;;;;2.42;1.05;;;26.30;38.80;;;;;;5049917;28;20118;-73
2023/06/03 07:48:36;;;;;;;5.70;1.77;;;26.30;38.90;;;;;;5050886;28;20040;-71
2023/06/03 07:51:06;;;;;;;0.95;0.75;;;26.10;38.70;;;;;;5051070;28;20040;-72
2023/06/03 07:53:36;;;;;;;1.15;1.13;;;26.10;39.70;;;;;;5051001;28;20373;-71
2023/06/03 07:56:12;;;;;;;3.05;1.27;;;26.10;39.70;;;;;;5051166;28;20029;-70
2023/06/03 07:58:38;;;;;;;3.20;1.40;;;26.10;40.00;;;;;;5051005;28;20041;-71
2023/06/03 08:01:05;;;;;;;1.90;1.05;;;26.10;39.70;;;;;;5050998;28;20067;-71
2023/06/03 08:03:32;;;;;;;3.33;1.08;;;26.20;39.20;;;;;;5050949;28;20037;-70
2023/06/03 08:05:58;;;;;;;2.10;0.98;;;26.20;40.10;;;;;;5050559;28;20407;-72
2023/06/03 08:08:30;;;;;;;1.23;1.02;;;26.20;40.10;;;;;;5051082;28;20029;-73
2023/06/03 08:10:56;;;;;;;0.50;0.40;;;26.10;39.90;;;;;;5051217;28;20120;-73
2023/06/03 08:13:23;;;;;;;1.30;1.20;;;26.30;40.20;;;;;;5052063;28;20128;-74
2023/06/03 08:15:49;;;;;;;3.20;1.50;;;26.30;39.60;;;;;;5055331;28;20021;-74
2023/06/03 08:18:44;;;;;;;5.25;1.08;;;26.20;39.50;;;;;;5054818;28;20112;-72
2023/06/03 08:21:12;;;;;;;2.97;1.30;;;26.20;39.30;;;;;;5012551;28;20149;-72
2023/06/03 08:23:38;;;;;;;4.50;1.05;;;26.10;39.60;;;;;;5012998;28;20445;-72
2023/06/03 08:26:04;;;;;;;4.03;1.20;;;26.30;39.90;;;;;;5012395;28;20042;-74
2023/06/03 08:28:30;;;;;;;1.08;0.85;;;26.20;39.60;;;;;;5013088;28;20029;-73
2023/06/03 08:30:56;;;;;;;2.80;1.15;;;26.30;39.80;;;;;;4996183;28;20489;-74
2023/06/03 08:33:22;;;;;;;1.00;0.95;;;26.30;39.90;;;;;;5012606;28;20517;-75
2023/06/03 08:35:48;;;;;;;0.85;0.85;;;26.30;40.30;;;;;;5012549;28;20030;-72
2023/06/03 08:38:16;;;;;;;3.38;0.93;;;26.30;40.40;;;;;;5012343;28;20518;-75
2023/06/03 08:40:50;;;;;;;1.65;1.05;;;26.30;39.90;;;;;;4996103;28;20053;-75
2023/06/03 08:43:20;;;;;;;1.48;0.90;;;26.40;40.70;;;;;;5012399;28;20502;-74
2023/06/03 08:45:55;;;;;;;2.58;1.40;;;26.30;40.30;;;;;;5012306;28;20050;-75
2023/06/03 08:48:36;;;;;;;2.92;1.30;;;26.20;40.20;;;;;;5012003;28;20442;-74
2023/06/03 08:51:06;;;;;;;1.10;0.98;;;26.30;40.00;;;;;;5012028;28;20050;-76
2023/06/03 08:53:45;;;;;;;1.73;1.25;;;26.20;39.60;;;;;;5011844;28;20041;-76
2023/06/03 08:56:12;;;;;;;2.00;0.98;;;26.30;39.60;;;;;;4995652;28;20030;-75
2023/06/03 08:58:43;;;;;;;1.08;1.02;;;26.10;38.30;;;;;;5042260;28;20085;-73
2023/06/03 09:01:11;;;;;;;1.13;1.08;;;26.20;39.40;;;;;;5052523;28;20037;-72
2023/06/03 09:03:41;;;;;;;1.45;1.35;;;26.30;43.20;;;;;;5053946;28;20033;-73
2023/06/03 09:06:07;;;;;;;14.00;7.05;;;26.50;40.90;;;;;;5071154;28;20055;-73
2023/06/03 09:08:36;;;;;;;4.90;2.15;;;26.40;42.20;;;;;;5071421;28;20045;-74
2023/06/03 09:11:04;;;;;;;4.18;2.90;;;26.40;39.30;;;;;;5071327;28;20098;-71
2023/06/03 09:13:33;;;;;;;4.55;1.52;;;26.50;36.90;;;;;;5071112;28;20039;-72
2023/06/03 09:15:59;;;;;;;1.50;1.33;;;26.40;36.20;;;;;;5054288;28;20073;-71
2023/06/03 09:18:25;;;;;;;1.10;1.10;;;26.30;35.40;;;;;;5050632;28;20208;-69
2023/06/03 09:20:51;;;;;;;0.98;0.90;;;26.30;35.20;;;;;;5050663;28;20133;-70
2023/06/03 09:23:17;;;;;;;0.98;0.93;;;26.20;35.70;;;;;;5050872;28;20029;-72
2023/06/03 09:25:44;;;;;;;7.85;1.77;;;26.20;35.30;;;;;;5050258;28;20117;-69
2023/06/03 09:28:10;;;;;;;5.43;1.70;;;26.30;36.00;;;;;;5034269;28;20033;-67
2023/06/03 09:30:37;;;;;;;5.18;1.35;;;26.20;36.50;;;;;;5050759;28;20160;-69
2023/06/03 09:33:03;;;;;;;6.00;0.98;;;26.20;36.00;;;;;;5050918;28;20124;-69
2023/06/03 09:35:29;;;;;;;2.22;1.13;;;26.30;36.50;;;;;;5050706;28;20109;-70
2023/06/03 09:38:01;;;;;;;1.45;1.05;;;26.10;36.60;;;;;;5052752;28;20117;-69
2023/06/03 09:40:31;;;;;;;2.13;1.13;;;26.00;36.90;;;;;;5053146;28;20040;-68
2023/06/03 09:42:58;;;;;;;0.70;0.70;;;26.10;37.40;;;;;;5053080;28;20041;-69
2023/06/03 09:45:31;;;;;;;5.80;1.63;;;26.00;39.10;;;;;;5053245;28;20477;-69
2023/06/03 09:47:58;;;;;;;4.43;1.80;;;26.20;41.40;;;;;;5051817;28;20033;-69
2023/06/03 09:50:26;;;;;;;3.92;1.35;;;26.40;41.50;;;;;;5051768;28;20033;-69
2023/06/03 09:52:52;;;;;;;0.50;0.50;;;26.40;41.80;;;;;;5053248;28;20389;-69
2023/06/03 09:55:19;;;;;;;0.85;0.82;;;26.50;43.00;;;;;;5052919;28;20032;-68
2023/06/03 09:58:04;;;;;;;3.42;1.02;;;26.60;40.70;;;;;;5052768;28;20390;-68
2023/06/03 10:00:33;;;;;;;5.80;1.27;;;26.70;39.20;;;;;;5052359;28;20033;-69
2023/06/03 10:03:09;;;;;;;3.47;1.30;;;26.50;39.20;;;;;;5053042;28;20037;-70
2023/06/03 10:05:36;;;;;;;2.05;1.40;;;26.60;39.30;;;;;;5051289;28;20474;-70
2023/06/03 10:08:04;;;;;;;0.57;0.57;;;26.70;40.10;;;;;;5053315;28;20128;-70
2023/06/03 10:10:30;;;;;;;0.70;0.70;;;26.70;39.10;;;;;;5069516;28;20071;-70
2023/06/03 10:12:56;;;;;;;1.30;1.20;;;26.50;37.30;;;;;;5053342;28;20083;-71
2023/06/03 10:15:39;;;;;;;2.70;1.73;;;26.50;37.50;;;;;;5070102;28;20184;-69
2023/06/03 10:18:06;;;;;;;1.77;1.55;;;26.70;39.10;;;;;;5052876;28;20386;-69
2023/06/03 10:20:38;;;;;;;2.75;0.98;;;26.60;38.40;;;;;;5069708;28;20163;-69
2023/06/03 10:23:06;;;;;;;4.03;1.15;;;26.70;38.00;;;;;;5069967;28;20044;-69
2023/06/03 10:25:38;;;;;;;2.85;1.42;;;26.50;37.90;;;;;;5070009;28;20040;-70
2023/06/03 10:28:05;;;;;;;1.10;1.00;;;26.60;37.90;;;;;;5069958;28;20040;-67
2023/06/03 10:30:31;;;;;;;2.55;1.27;;;26.60;39.20;;;;;;5053056;28;20044;-70
2023/06/03 10:33:04;;;;;;;0.80;0.77;;;26.60;39.60;;;;;;5069472;28;20101;-69
2023/06/03 10:35:34;;;;;;;5.32;1.13;;;26.60;39.20;;;;;;5070995;28;20039;-70
2023/06/03 10:38:03;;;;;;;3.47;1.15;;;26.60;42.60;;;;;;5079345;28;20044;-67
2023/06/03 10:40:30;;;;;;;0.50;0.50;;;26.90;46.20;;;;;;5054219;28;20114;-70
2023/06/03 10:42:56;;;;;;;1.67;1.15;;;27.30;48.50;;;;;;5051250;28;20029;-69
2023/06/03 10:45:23;;;;;;;1.75;1.63;;;27.50;47.20;;;;;;5070458;28;20480;-70
2023/06/03 10:48:21;;;;;;;1.70;1.05;;;27.70;43.00;;;;;;5071638;28;20129;-70
2023/06/03 10:51:08;;;;;;;4.05;1.10;;;27.60;39.80;;;;;;5023582;28;20582;-70
2023/06/03 10:53:48;;;;;;;0.93;0.90;;;27.30;39.10;;;;;;5009219;28;20041;-70
2023/06/03 10:56:29;;;;;;;1.60;1.15;;;27.20;38.50;;;;;;4996352;28;20124;-70
2023/06/03 10:59:03;;;;;;;4.38;0.90;;;27.00;39.30;;;;;;4989616;28;20046;-70
2023/06/03 11:02:01;;;;;;;3.85;0.70;;;27.00;39.70;;;;;;5008868;28;20141;-70
2023/06/03 11:04:29;;;;;;;3.85;2.17;;;26.90;38.20;;;;;;5008840;28;20421;-71
2023/06/03 11:06:55;;;;;;;19.35;5.43;;;26.80;38.00;;;;;;5009082;28;20036;-71
2023/06/03 11:09:40;;;;;;;5.75;1.92;;;26.90;38.50;;;;;;4976849;28;20136;-72
2023/06/03 11:12:14;;;;;;;4.00;2.10;;;26.90;37.90;;;;;;4997612;28;20521;-71
2023/06/03 11:14:40;;;;;;;9.70;4.43;;;26.80;38.30;;;;;;5008818;28;20046;-72
2023/06/03 11:17:09;;;;;;;1.65;1.02;;;26.80;38.20;;;;;;5008864;28;20052;-72
2023/06/03 11:19:55;;;;;;;4.30;2.50;;;26.80;37.40;;;;;;5008316;28;20069;-70
2023/06/03 11:22:27;;;;;;;3.50;1.92;;;26.70;37.90;;;;;;5008757;28;20548;-71
2023/06/03 11:24:54;;;;;;;6.37;1.97;;;26.80;38.60;;;;;;5008670;28;20061;-71
2023/06/03 11:27:21;;;;;;;7.03;2.78;;;26.80;38.80;;;;;;5021031;28;20481;-71
2023/06/03 11:29:57;;;;;;;2.85;1.50;;;26.70;38.30;;;;;;5030548;28;20045;-71
2023/06/03 11:32:32;;;;;;;1.60;1.13;;;26.80;37.10;;;;;;5031171;28;20120;-71
2023/06/03 11:35:04;;;;;;;4.38;1.88;;;26.70;37.90;;;;;;5030911;28;20068;-71
2023/06/03 11:37:41;;;;;;;4.63;1.73;;;26.60;39.00;;;;;;5029776;28;20073;-72
2023/06/03 11:40:17;;;;;;;4.95;1.73;;;26.70;38.90;;;;;;5029880;28;20077;-71
2023/06/03 11:42:49;;;;;;;0.98;0.98;;;26.60;39.30;;;;;;5032172;28;20107;-69
2023/06/03 11:45:28;;;;;;;0.82;0.82;;;26.50;39.40;;;;;;5071072;28;20062;-72
2023/06/03 11:47:59;;;;;;;3.72;1.33;;;26.50;39.60;;;;;;5069990;28;20055;-68
2023/06/03 11:50:48;;;;;;;2.47;1.00;;;26.50;39.90;;;;;;5073620;28;20047;-70
2023/06/03 11:53:36;;;;;;;2.35;1.15;;;26.50;39.70;;;;;;5073936;28;20040;-66
2023/06/03 11:56:08;;;;;;;1.30;1.08;;;26.30;40.50;;;;;;5075221;28;20112;-69
2023/06/03 11:58:38;;;;;;;2.53;1.27;;;26.30;40.40;;;;;;5074722;28;20203;-68
2023/06/03 12:01:17;;;;;;;1.80;1.10;;;26.40;40.60;;;;;;5075268;28;20036;-68
2023/06/03 12:04:00;;;;;;;1.40;1.30;;;26.40;40.40;;;;;;5073790;28;20033;-67
2023/06/03 12:06:33;;;;;;;3.17;1.10;;;26.50;40.00;;;;;;5075040;28;20587;-68
2023/06/03 12:08:59;;;;;;;6.60;1.25;;;26.40;41.00;;;;;;5073541;28;20041;-68
2023/06/03 12:11:29;;;;;;;3.17;1.55;;;26.50;42.70;;;;;;5075234;28;20032;-68
2023/06/03 12:13:56;;;;;;;2.00;1.20;;;26.50;42.30;;;;;;5074864;28;20039;-69
2023/06/03 12:16:36;;;;;;;6.95;1.20;;;26.50;42.10;;;;;;5073671;28;20108;-68
2023/06/03 12:19:04;;;;;;;1.13;1.02;;;26.50;41.80;;;;;;5061110;28;20033;-69
2023/06/03 12:21:32;;;;;;;5.57;1.35;;;26.40;41.70;;;;;;5054437;28;20035;-68
2023/06/03 12:23:58;;;;;;;1.80;1.60;;;26.50;40.30;;;;;;5054588;28;20040;-69
2023/06/03 12:26:25;;;;;;;4.22;1.23;;;26.50;41.40;;;;;;5054291;28;20025;-69
2023/06/03 12:28:54;;;;;;;1.40;1.30;;;26.50;41.80;;;;;;5054430;28;20111;-68
2023/06/03 12:31:20;;;;;;;3.13;1.05;;;26.50;40.80;;;;;;5054296;28;20041;-71
2023/06/03 12:33:46;;;;;;;4.55;1.48;;;26.50;41.60;;;;;;5053060;28;20047;-69
2023/06/03 12:36:14;;;;;;;1.88;1.27;;;26.60;41.00;;;;;;5054389;28;20501;-69
2023/06/03 12:38:57;;;;;;;1.77;1.25;;;26.50;39.80;;;;;;5054395;28;20040;-68
2023/06/03 12:41:23;;;;;;;1.58;1.20;;;26.40;41.20;;;;;;5054157;28;20468;-68
2023/06/03 12:44:02;;;;;;;4.07;1.13;;;26.50;42.10;;;;;;5054073;28;20065;-70
2023/06/03 12:46:30;;;;;;;0.98;0.90;;;26.40;42.20;;;;;;5053925;28;20036;-68
2023/06/03 12:49:11;;;;;;;5.03;1.33;;;26.40;41.50;;;;;;5053603;28;20035;-68
2023/06/03 12:51:37;;;;;;;1.98;1.52;;;26.40;42.00;;;;;;5054002;28;20473;-68
2023/06/03 12:54:05;;;;;;;1.08;0.80;;;26.50;42.20;;;;;;5054186;28;20185;-68
2023/06/03 12:56:35;;;;;;;1.20;1.05;;;26.40;42.40;;;;;;5054057;28;20032;-68
2023/06/03 12:59:03;;;;;;;0.88;0.88;;;26.40;41.50;;;;;;5053550;28;20029;-69
2023/06/03 13:01:29;;;;;;;1.38;0.77;;;26.30;39.70;;;;;;5052858;28;20059;-68